createdAt,value
2018-12-27T00:00:33.788Z,2.46
2018-12-27T00:03:02.825Z,2.44
2018-12-27T00:05:31.985Z,2.46
2018-12-27T00:08:01.205Z,2.46
2018-12-27T00:10:30.335Z,2.44
2018-12-27T00:12:59.341Z,2.43
2018-12-27T00:15:28.360Z,2.44
2018-12-27T00:17:57.521Z,2.44
2018-12-27T00:20:26.525Z,2.44
2018-12-27T00:22:55.562Z,2.44
2018-12-27T00:25:24.661Z,2.42
2018-12-27T00:27:53.589Z,2.40
2018-12-27T00:30:22.601Z,2.40
2018-12-27T00:32:51.700Z,2.40
2018-12-27T00:35:20.792Z,2.36
2018-12-27T00:37:49.809Z,2.34
2018-12-27T00:40:18.752Z,2.32
2018-12-27T00:42:48.070Z,2.30
2018-12-27T00:45:17.070Z,2.29
2018-12-27T00:47:46.136Z,2.28
2018-12-27T00:50:15.073Z,2.26
2018-12-27T00:52:44.169Z,2.30
2018-12-27T00:55:13.169Z,2.29
2018-12-27T00:57:42.090Z,2.25
2018-12-27T01:00:11.058Z,2.24
2018-12-27T01:02:40.176Z,2.23
2018-12-27T01:05:09.235Z,2.22
2018-12-27T01:07:38.342Z,2.21
2018-12-27T01:10:07.607Z,2.20
2018-12-27T01:12:36.705Z,2.21
2018-12-27T01:15:05.865Z,2.21
2018-12-27T01:17:34.896Z,2.22
2018-12-27T01:20:03.880Z,2.26
2018-12-27T01:22:32.850Z,2.23
2018-12-27T01:25:01.847Z,2.20
2018-12-27T01:27:30.899Z,2.19
2018-12-27T01:30:00.427Z,2.17
2018-12-27T01:32:29.439Z,2.13
2018-12-27T01:35:02.501Z,2.14
2018-12-27T01:37:31.567Z,2.14
2018-12-27T01:40:00.529Z,2.11
2018-12-27T01:42:29.550Z,2.09
2018-12-27T01:44:58.917Z,2.07
2018-12-27T01:47:28.098Z,2.07
2018-12-27T01:49:56.958Z,2.06
2018-12-27T01:52:26.077Z,2.04
2018-12-27T01:54:55.124Z,2.06
2018-12-27T01:57:24.275Z,2.05
2018-12-27T01:59:53.286Z,2.08
2018-12-27T02:02:25.484Z,2.12
2018-12-27T02:04:54.772Z,2.10
2018-12-27T02:07:23.877Z,2.13
2018-12-27T02:09:52.874Z,2.12
2018-12-27T02:12:21.928Z,2.09
2018-12-27T02:14:50.962Z,2.05
2018-12-27T02:17:19.857Z,2.02
2018-12-27T02:19:48.821Z,1.99
2018-12-27T02:22:17.790Z,1.91
2018-12-27T02:24:46.688Z,1.82
2018-12-27T02:27:15.580Z,1.78
2018-12-27T02:29:44.621Z,1.74
2018-12-27T02:32:13.641Z,1.80
2018-12-27T02:34:42.553Z,1.75
2018-12-27T02:37:11.656Z,1.67
2018-12-27T02:39:40.641Z,1.64
2018-12-27T02:42:09.580Z,1.61
2018-12-27T02:44:38.574Z,1.55
2018-12-27T02:47:07.477Z,1.48
2018-12-27T02:49:36.525Z,1.53
2018-12-27T02:52:05.458Z,1.47
2018-12-27T02:54:34.476Z,1.39
2018-12-27T02:57:03.469Z,1.31
2018-12-27T02:59:32.635Z,1.21
2018-12-27T03:02:01.659Z,1.15
2018-12-27T03:04:30.756Z,1.08
2018-12-27T03:06:59.767Z,1.00
2018-12-27T03:09:28.736Z,0.95
2018-12-27T03:11:57.730Z,0.93
2018-12-27T03:14:26.729Z,0.97
2018-12-27T03:16:55.897Z,0.97
2018-12-27T03:19:25.091Z,0.99
2018-12-27T03:21:54.035Z,1.01
2018-12-27T03:24:23.266Z,1.02
2018-12-27T03:26:52.093Z,1.06
2018-12-27T03:29:21.185Z,1.09
2018-12-27T03:31:50.081Z,1.10
2018-12-27T03:34:19.055Z,1.12
2018-12-27T03:36:48.116Z,1.15
2018-12-27T03:39:16.944Z,1.16
2018-12-27T03:41:45.885Z,1.23
2018-12-27T03:44:14.864Z,1.28
2018-12-27T03:46:43.682Z,1.25
2018-12-27T03:49:13.266Z,1.18
2018-12-27T03:51:42.100Z,1.17
2018-12-27T03:54:11.028Z,1.19
2018-12-27T03:56:40.034Z,1.22
2018-12-27T03:59:08.882Z,1.18
2018-12-27T04:01:37.947Z,1.16
2018-12-27T04:04:06.763Z,1.13
2018-12-27T04:06:35.778Z,1.06
2018-12-27T04:09:05.334Z,0.97
2018-12-27T04:11:34.163Z,0.89
2018-12-27T04:14:03.184Z,0.89
2018-12-27T04:16:32.162Z,0.93
2018-12-27T04:19:01.143Z,0.97
2018-12-27T04:21:30.113Z,0.91
2018-12-27T04:23:59.165Z,0.85
2018-12-27T04:26:30.206Z,0.74
2018-12-27T04:28:59.111Z,0.74
2018-12-27T04:31:28.388Z,0.80
2018-12-27T04:33:57.750Z,0.80
2018-12-27T04:36:26.907Z,0.77
2018-12-27T04:38:55.853Z,0.69
2018-12-27T04:41:24.749Z,0.67
2018-12-27T04:43:53.792Z,0.64
2018-12-27T04:46:22.763Z,0.69
2018-12-27T04:48:51.676Z,0.76
2018-12-27T04:51:20.952Z,0.74
2018-12-27T04:53:49.881Z,0.71
2018-12-27T04:56:18.826Z,0.73
2018-12-27T04:58:48.561Z,0.68
2018-12-27T05:01:17.534Z,0.58
2018-12-27T05:03:46.534Z,0.47
2018-12-27T05:06:15.448Z,0.39
2018-12-27T05:08:44.485Z,0.35
2018-12-27T05:11:13.314Z,0.32
2018-12-27T05:13:42.211Z,0.29
2018-12-27T05:16:11.092Z,0.24
2018-12-27T05:18:40.038Z,0.18
2018-12-27T05:21:09.035Z,0.10
2018-12-27T05:23:38.127Z,0.01
2018-12-27T05:26:07.055Z,-0.07
2018-12-27T05:28:35.974Z,-0.14
2018-12-27T05:31:05.015Z,-0.19
2018-12-27T05:33:33.887Z,-0.24
2018-12-27T05:36:02.879Z,-0.33
2018-12-27T05:38:31.843Z,-0.37
2018-12-27T05:41:00.860Z,-0.38
2018-12-27T05:43:29.922Z,-0.37
2018-12-27T05:45:58.934Z,-0.38
2018-12-27T05:48:27.837Z,-0.34
2018-12-27T05:50:56.819Z,-0.26
2018-12-27T05:53:25.918Z,-0.23
2018-12-27T05:55:55.071Z,-0.21
2018-12-27T05:58:24.052Z,-0.14
2018-12-27T06:00:52.992Z,-0.08
2018-12-27T06:03:21.907Z,0.00
2018-12-27T06:05:51.819Z,0.12
2018-12-27T06:08:20.850Z,0.30
2018-12-27T06:10:49.821Z,0.41
2018-12-27T06:13:18.823Z,0.42
2018-12-27T06:15:47.771Z,0.49
2018-12-27T06:18:16.814Z,0.52
2018-12-27T06:20:45.794Z,0.53
2018-12-27T06:23:14.718Z,0.59
2018-12-27T06:25:43.758Z,0.60
2018-12-27T06:28:12.755Z,0.67
2018-12-27T06:30:41.669Z,0.75
2018-12-27T06:33:10.634Z,0.83
2018-12-27T06:35:39.614Z,0.84
2018-12-27T06:38:08.495Z,0.86
2018-12-27T06:40:37.371Z,0.92
2018-12-27T06:43:06.469Z,1.01
2018-12-27T06:45:35.611Z,1.05
2018-12-27T06:48:04.594Z,1.11
2018-12-27T06:50:33.454Z,1.14
2018-12-27T06:53:02.372Z,1.15
2018-12-27T06:55:31.234Z,1.19
2018-12-27T06:58:00.243Z,1.18
2018-12-27T07:00:29.356Z,1.23
2018-12-27T07:02:58.246Z,1.22
2018-12-27T07:05:27.190Z,1.23
2018-12-27T07:07:56.232Z,1.26
2018-12-27T07:10:25.182Z,1.21
2018-12-27T07:12:54.198Z,1.19
2018-12-27T07:15:25.046Z,1.17
2018-12-27T07:17:53.978Z,1.14
2018-12-27T07:20:22.967Z,1.09
2018-12-27T07:22:51.927Z,1.09
2018-12-27T07:25:20.890Z,1.06
2018-12-27T07:27:49.888Z,1.04
2018-12-27T07:30:18.927Z,0.98
2018-12-27T07:32:47.879Z,0.98
2018-12-27T07:35:16.739Z,1.00
2018-12-27T07:37:45.636Z,0.94
2018-12-27T07:40:14.630Z,0.85
2018-12-27T07:42:43.733Z,0.80
2018-12-27T07:45:12.566Z,0.77
2018-12-27T07:47:41.423Z,0.74
2018-12-27T07:50:10.755Z,0.72
2018-12-27T07:52:39.746Z,0.71
2018-12-27T07:55:08.802Z,0.71
2018-12-27T07:57:37.835Z,0.73
2018-12-27T08:00:07.087Z,0.72
2018-12-27T08:02:36.114Z,0.72
2018-12-27T08:05:05.135Z,0.69
2018-12-27T08:07:34.130Z,0.68
2018-12-27T08:10:03.139Z,0.63
2018-12-27T08:12:31.999Z,0.60
2018-12-27T08:15:05.018Z,0.60
2018-12-27T08:17:33.980Z,0.60
2018-12-27T08:20:03.095Z,0.60
2018-12-27T08:22:31.955Z,0.63
2018-12-27T08:25:00.899Z,0.64
2018-12-27T08:27:29.846Z,0.71
2018-12-27T08:29:58.842Z,0.76
2018-12-27T08:32:27.759Z,0.81
2018-12-27T08:34:56.779Z,0.83
2018-12-27T08:37:25.627Z,0.84
2018-12-27T08:39:54.638Z,0.88
2018-12-27T08:42:23.542Z,0.92
2018-12-27T08:44:52.557Z,0.95
2018-12-27T08:47:28.662Z,0.97
2018-12-27T08:50:01.110Z,1.03
2018-12-27T08:52:30.046Z,1.05
2018-12-27T08:54:58.971Z,1.08
2018-12-27T08:57:27.906Z,1.08
2018-12-27T08:59:56.846Z,1.09
2018-12-27T09:02:25.783Z,1.09
2018-12-27T09:04:54.667Z,1.11
2018-12-27T09:07:24.587Z,1.09
2018-12-27T09:09:53.618Z,1.09
2018-12-27T09:12:22.539Z,1.10
2018-12-27T09:14:51.459Z,1.13
2018-12-27T09:17:20.455Z,1.18
2018-12-27T09:19:49.547Z,1.22
2018-12-27T09:22:18.520Z,1.29
2018-12-27T09:24:47.428Z,1.34
2018-12-27T09:27:16.472Z,1.42
2018-12-27T09:29:45.363Z,1.49
2018-12-27T09:32:14.391Z,1.58
2018-12-27T09:34:43.304Z,1.67
2018-12-27T09:37:13.295Z,1.75
2018-12-27T09:39:42.192Z,1.86
2018-12-27T09:42:12.222Z,1.97
2018-12-27T09:44:41.463Z,2.07
2018-12-27T09:47:10.394Z,2.15
2018-12-27T09:49:39.272Z,2.21
2018-12-27T09:52:08.139Z,2.25
2018-12-27T09:54:37.095Z,2.34
2018-12-27T09:57:06.006Z,2.42
2018-12-27T09:59:35.014Z,2.49
2018-12-27T10:02:04.051Z,2.60
2018-12-27T10:04:33.074Z,2.70
2018-12-27T10:07:03.310Z,2.81
2018-12-27T10:09:32.354Z,2.91
2018-12-27T10:12:01.279Z,3.05
2018-12-27T10:14:30.163Z,3.26
2018-12-27T10:16:59.026Z,3.48
2018-12-27T10:19:28.074Z,3.59
2018-12-27T10:21:57.095Z,3.66
2018-12-27T10:24:26.047Z,3.88
2018-12-27T10:26:55.250Z,3.98
2018-12-27T10:29:24.282Z,4.09
2018-12-27T10:31:53.257Z,4.14
2018-12-27T10:34:22.224Z,4.23
2018-12-27T10:36:51.295Z,4.31
2018-12-27T10:39:20.347Z,4.42
2018-12-27T10:41:49.395Z,4.59
2018-12-27T10:44:18.327Z,4.76
2018-12-27T10:46:47.274Z,4.78
2018-12-27T10:49:16.436Z,4.92
2018-12-27T10:51:45.446Z,4.96
2018-12-27T10:54:14.421Z,5.09
2018-12-27T10:56:43.461Z,5.02
2018-12-27T10:59:12.357Z,4.98
2018-12-27T11:01:41.379Z,5.05
2018-12-27T11:04:10.280Z,5.07
2018-12-27T11:06:40.331Z,5.19
2018-12-27T11:09:09.598Z,5.25
2018-12-27T11:11:38.560Z,5.26
2018-12-27T11:14:07.538Z,5.34
2018-12-27T11:16:36.570Z,5.37
2018-12-27T11:19:05.596Z,5.39
2018-12-27T11:21:34.570Z,5.42
2018-12-27T11:24:03.446Z,5.49
2018-12-27T11:26:32.324Z,5.57
2018-12-27T11:29:02.340Z,5.61
2018-12-27T11:31:31.381Z,5.63
2018-12-27T11:34:01.504Z,5.70
2018-12-27T11:36:30.427Z,5.74
2018-12-27T11:39:01.430Z,5.77
2018-12-27T11:41:33.814Z,5.73
2018-12-27T11:44:02.805Z,5.69
2018-12-27T11:46:31.864Z,5.73
2018-12-27T11:49:01.007Z,5.84
2018-12-27T11:51:29.931Z,5.90
2018-12-27T11:53:58.846Z,5.99
2018-12-27T11:56:27.900Z,6.00
2018-12-27T11:59:06.358Z,5.96
2018-12-27T12:01:40.365Z,5.92
2018-12-27T12:04:12.605Z,5.96
2018-12-27T12:06:45.183Z,5.93
2018-12-27T12:09:14.236Z,5.93
2018-12-27T12:11:43.228Z,6.07
2018-12-27T12:14:12.187Z,6.07
2018-12-27T12:16:41.531Z,6.12
2018-12-27T12:19:10.479Z,6.22
2018-12-27T12:21:39.619Z,6.38
2018-12-27T12:24:08.567Z,6.40
2018-12-27T12:26:37.446Z,6.30
2018-12-27T12:29:07.264Z,6.37
2018-12-27T12:31:36.143Z,6.40
2018-12-27T12:34:05.195Z,6.50
2018-12-27T12:36:34.343Z,6.59
2018-12-27T12:39:07.606Z,6.63
2018-12-27T12:41:36.756Z,6.65
2018-12-27T12:44:05.735Z,6.69
2018-12-27T12:46:34.671Z,6.71
2018-12-27T12:49:07.770Z,6.73
2018-12-27T12:51:36.710Z,6.71
2018-12-27T12:54:05.728Z,6.68
2018-12-27T12:56:34.694Z,6.67
2018-12-27T12:59:07.739Z,6.62
2018-12-27T13:01:40.258Z,6.59
2018-12-27T13:04:09.342Z,6.62
2018-12-27T13:06:38.482Z,6.66
2018-12-27T13:09:17.464Z,6.71
2018-12-27T13:11:46.466Z,6.64
2018-12-27T13:14:15.442Z,6.63
2018-12-27T13:16:48.175Z,6.65
2018-12-27T13:19:17.307Z,6.66
2018-12-27T13:21:46.232Z,6.66
2018-12-27T13:24:15.179Z,6.64
2018-12-27T13:26:44.160Z,6.63
2018-12-27T13:29:13.143Z,6.57
2018-12-27T13:31:42.103Z,6.56
2018-12-27T13:34:11.043Z,6.52
2018-12-27T13:36:39.934Z,6.45
2018-12-27T13:39:09.954Z,6.36
2018-12-27T13:41:39.023Z,6.31
2018-12-27T13:44:08.035Z,6.26
2018-12-27T13:46:36.962Z,6.22
2018-12-27T13:49:06.023Z,6.18
2018-12-27T13:51:35.046Z,6.16
2018-12-27T13:54:04.110Z,6.18
2018-12-27T13:56:33.028Z,6.21
2018-12-27T13:59:02.031Z,6.24
2018-12-27T14:01:30.999Z,6.26
2018-12-27T14:04:00.316Z,6.26
2018-12-27T14:06:32.709Z,6.19
2018-12-27T14:09:00.114Z,6.15
2018-12-27T14:11:28.986Z,6.07
2018-12-27T14:13:57.875Z,6.01
2018-12-27T14:16:26.819Z,5.99
2018-12-27T14:18:55.754Z,5.94
2018-12-27T14:21:24.871Z,5.89
2018-12-27T14:23:53.785Z,5.84
2018-12-27T14:26:22.630Z,5.75
2018-12-27T14:28:51.535Z,5.67
2018-12-27T14:31:20.353Z,5.59
2018-12-27T14:33:49.355Z,5.52
2018-12-27T14:36:18.232Z,5.44
2018-12-27T14:38:47.282Z,5.33
2018-12-27T14:41:16.254Z,5.20
2018-12-27T14:45:52.927Z,5.05
2018-12-27T14:48:21.894Z,4.92
2018-12-27T14:50:50.834Z,4.80
2018-12-27T14:53:19.715Z,4.70
2018-12-27T14:55:49.603Z,4.60
2018-12-27T14:58:18.587Z,4.49
2018-12-27T15:00:47.482Z,4.40
2018-12-27T15:03:16.306Z,4.32
2018-12-27T15:05:45.143Z,4.24
2018-12-27T15:08:14.083Z,4.16
2018-12-27T15:10:42.926Z,4.08
2018-12-27T15:13:11.783Z,4.05
2018-12-27T15:15:40.647Z,4.02
2018-12-27T15:18:09.515Z,3.98
2018-12-27T15:20:38.514Z,3.95
2018-12-27T15:23:07.414Z,3.93
2018-12-27T15:25:36.356Z,3.89
2018-12-27T15:28:05.268Z,3.89
2018-12-27T15:30:34.195Z,3.84
2018-12-27T15:33:03.039Z,3.79
2018-12-27T15:35:32.035Z,3.76
2018-12-27T15:38:01.011Z,3.71
2018-12-27T15:40:29.983Z,3.68
2018-12-27T15:42:58.923Z,3.67
2018-12-27T15:45:27.883Z,3.67
2018-12-27T15:47:56.841Z,3.68
2018-12-27T15:50:26.076Z,3.72
2018-12-27T15:52:56.887Z,3.72
2018-12-27T15:55:25.875Z,3.65
2018-12-27T15:57:54.687Z,3.65
2018-12-27T16:00:23.628Z,3.63
2018-12-27T16:02:52.630Z,3.59
2018-12-27T16:05:21.579Z,3.54
2018-12-27T16:07:50.500Z,3.48
2018-12-27T16:10:19.539Z,3.46
2018-12-27T16:12:48.476Z,3.45
2018-12-27T16:15:17.369Z,3.42
2018-12-27T16:17:46.347Z,3.41
2018-12-27T16:20:15.760Z,3.43
2018-12-27T16:22:44.685Z,3.47
2018-12-27T16:25:13.759Z,3.56
2018-12-27T16:27:42.764Z,3.58
2018-12-27T16:30:12.143Z,3.63
2018-12-27T16:32:41.182Z,3.65
2018-12-27T16:35:10.363Z,3.65
2018-12-27T16:37:39.588Z,3.64
2018-12-27T16:40:09.390Z,3.61
2018-12-27T16:42:38.935Z,3.58
2018-12-27T16:45:08.215Z,3.63
2018-12-27T16:47:37.440Z,3.70
2018-12-27T16:50:07.687Z,3.77
2018-12-27T16:52:36.811Z,3.73
2018-12-27T16:55:05.781Z,3.69
2018-12-27T16:57:34.754Z,3.67
2018-12-27T17:00:04.013Z,3.63
2018-12-27T17:02:33.200Z,3.56
2018-12-27T17:05:02.303Z,3.48
2018-12-27T17:07:31.423Z,3.44
2018-12-27T17:10:01.492Z,3.40
2018-12-27T17:12:30.655Z,3.39
2018-12-27T17:14:59.766Z,3.36
2018-12-27T17:17:28.814Z,3.32
2018-12-27T17:19:57.962Z,3.31
2018-12-27T17:22:27.260Z,3.31
2018-12-27T17:24:56.363Z,3.35
2018-12-27T17:27:29.531Z,3.39
2018-12-27T17:29:58.586Z,3.34
2018-12-27T17:32:27.595Z,3.33
2018-12-27T17:34:57.032Z,3.28
2018-12-27T17:37:26.293Z,3.24
2018-12-27T17:39:55.583Z,3.17
2018-12-27T17:42:24.782Z,3.07
2018-12-27T17:44:54.029Z,2.95
2018-12-27T17:47:23.335Z,2.80
2018-12-27T17:49:53.754Z,2.64
2018-12-27T17:52:30.015Z,2.51
2018-12-27T17:54:54.603Z,2.40
2018-12-27T17:57:23.899Z,2.28
2018-12-27T17:59:53.327Z,2.13
2018-12-27T18:02:22.500Z,1.99
2018-12-27T18:04:51.953Z,1.84
2018-12-27T18:07:21.238Z,1.74
2018-12-27T18:09:51.595Z,1.61
2018-12-27T18:12:21.079Z,1.51
2018-12-27T18:14:59.533Z,1.44
2018-12-27T18:17:28.935Z,1.40
2018-12-27T18:19:58.434Z,1.36
2018-12-27T18:22:27.658Z,1.29
2018-12-27T18:24:57.089Z,1.17
2018-12-27T18:27:26.475Z,1.09
2018-12-27T18:29:56.976Z,1.05
2018-12-27T18:32:26.333Z,1.00
2018-12-27T18:34:55.667Z,0.94
2018-12-27T18:37:25.039Z,0.92
2018-12-27T18:39:54.367Z,0.90
2018-12-27T18:42:23.738Z,0.92
2018-12-27T18:44:53.210Z,0.97
2018-12-27T18:47:22.608Z,1.03
2018-12-27T18:50:00.838Z,1.06
2018-12-27T18:52:33.975Z,1.13
2018-12-27T18:55:06.974Z,1.19
2018-12-27T18:57:40.259Z,1.25
2018-12-27T19:00:13.379Z,1.29
2018-12-27T19:02:46.290Z,1.30
2018-12-27T19:05:19.151Z,1.31
2018-12-27T19:07:52.107Z,1.39
2018-12-27T19:10:25.079Z,1.48
2018-12-27T19:13:10.357Z,1.48
2018-12-27T19:15:47.426Z,1.48
2018-12-27T19:18:31.843Z,1.49
2018-12-27T19:21:14.171Z,1.51
2018-12-27T19:23:47.551Z,1.54
2018-12-27T19:26:20.363Z,1.57
2018-12-27T19:28:53.847Z,1.60
2018-12-27T19:31:26.758Z,1.65
2018-12-27T19:33:59.451Z,1.69
2018-12-27T19:36:32.327Z,1.71
2018-12-27T19:39:07.057Z,1.73
2018-12-27T19:41:40.055Z,1.73
2018-12-27T19:44:12.955Z,1.76
2018-12-27T19:46:46.023Z,1.79
2018-12-27T19:49:18.995Z,1.81
2018-12-27T19:51:52.110Z,1.85
2018-12-27T19:54:31.757Z,1.86
2018-12-27T19:57:00.682Z,1.85
2018-12-27T19:59:33.786Z,1.88
2018-12-27T20:02:06.837Z,1.90
2018-12-27T20:04:39.851Z,1.92
2018-12-27T20:07:12.731Z,1.96
2018-12-27T20:09:46.167Z,2.01
2018-12-27T20:12:19.198Z,2.05
2018-12-27T20:14:52.373Z,2.09
2018-12-27T20:17:25.170Z,2.16
2018-12-27T20:19:59.141Z,2.20
2018-12-27T20:22:32.287Z,2.19
2018-12-27T20:25:06.391Z,2.15
2018-12-27T20:27:39.345Z,2.13
2018-12-27T20:30:12.320Z,2.09
2018-12-27T20:32:48.979Z,2.11
2018-12-27T20:35:21.896Z,2.13
2018-12-27T20:37:54.955Z,2.17
2018-12-27T20:40:27.923Z,2.18
2018-12-27T20:43:00.915Z,2.19
2018-12-27T20:45:34.098Z,2.21
2018-12-27T20:48:07.196Z,2.16
2018-12-27T20:50:40.161Z,2.08
2018-12-27T20:53:14.243Z,2.03
2018-12-27T20:55:47.603Z,1.96
2018-12-27T20:58:20.499Z,1.87
2018-12-27T21:00:53.678Z,1.79
2018-12-27T21:03:27.027Z,1.72
2018-12-27T21:05:59.727Z,1.66
2018-12-27T21:08:32.787Z,1.61
2018-12-27T21:11:05.839Z,1.56
2018-12-27T21:13:38.883Z,1.53
2018-12-27T21:16:12.043Z,1.48
2018-12-27T21:18:45.084Z,1.45
2018-12-27T21:21:19.120Z,1.41
2018-12-27T21:23:51.947Z,1.37
2018-12-27T21:26:28.979Z,1.33
2018-12-27T21:29:01.659Z,1.27
2018-12-27T21:31:34.717Z,1.21
2018-12-27T21:34:08.275Z,1.17
2018-12-27T21:36:40.861Z,1.15
2018-12-27T21:39:13.885Z,1.12
2018-12-27T21:41:47.164Z,1.10
2018-12-27T21:44:20.862Z,1.10
2018-12-27T21:46:54.335Z,1.09
2018-12-27T21:49:28.319Z,1.10
2018-12-27T21:52:01.382Z,1.09
2018-12-27T21:54:34.174Z,1.08
2018-12-27T21:57:07.418Z,1.09
2018-12-27T21:59:41.107Z,1.06
2018-12-27T22:02:14.326Z,1.02
2018-12-27T22:04:51.761Z,0.99
2018-12-27T22:07:25.259Z,0.93
2018-12-27T22:09:58.278Z,0.87
2018-12-27T22:12:31.055Z,0.80
2018-12-27T22:15:03.826Z,0.71
2018-12-27T22:17:36.743Z,0.60
2018-12-27T22:20:09.647Z,0.49
2018-12-27T22:22:42.787Z,0.38
2018-12-27T22:25:15.959Z,0.27
2018-12-27T22:27:49.174Z,0.20
2018-12-27T22:30:21.936Z,0.17
2018-12-27T22:32:58.992Z,0.11
2018-12-27T22:35:31.702Z,0.10
2018-12-27T22:38:05.059Z,0.11
2018-12-27T22:40:37.583Z,0.10
2018-12-27T22:43:10.687Z,0.10
2018-12-27T22:45:43.818Z,0.07
2018-12-27T22:48:16.926Z,-0.02
2018-12-27T22:50:49.922Z,-0.06
2018-12-27T22:53:22.979Z,-0.09
2018-12-27T22:55:57.468Z,-0.16
2018-12-27T22:58:31.087Z,-0.25
2018-12-27T23:01:03.847Z,-0.35
2018-12-27T23:03:36.875Z,-0.43
2018-12-27T23:06:09.738Z,-0.46
2018-12-27T23:08:43.427Z,-0.51
2018-12-27T23:11:17.199Z,-0.55
2018-12-27T23:13:49.881Z,-0.65
2018-12-27T23:16:22.238Z,-0.69
2018-12-27T23:18:55.094Z,-0.74
2018-12-27T23:21:31.193Z,-0.78
2018-12-27T23:24:04.271Z,-0.84
2018-12-27T23:26:36.939Z,-0.89
2018-12-27T23:29:10.002Z,-0.89
2018-12-27T23:31:42.243Z,-0.85
2018-12-27T23:34:15.172Z,-0.83
2018-12-27T23:36:48.215Z,-0.82
2018-12-27T23:39:20.478Z,-0.83
2018-12-27T23:41:53.431Z,-0.84
2018-12-27T23:44:26.355Z,-0.85
2018-12-27T23:46:59.275Z,-0.88
2018-12-27T23:49:32.270Z,-0.94
2018-12-27T23:52:03.168Z,-0.99
2018-12-27T23:54:39.295Z,-1.02
2018-12-27T23:57:11.579Z,-1.02
2018-12-27T23:59:44.710Z,-0.99
